Gulbeniz A — TCZK8 — position and weather

sailwx.info

Track history (hours):
 
Tides and Currents Weather Stations Pressure Air Temp Water Temp Dewpoint Dewpoint Depression Visibility Wind Speed Wind Dir Waves Ship Positions

Gulbeniz A

Last reported at 2017-Apr-27 06:33 UTC. Time now 2017-Apr-27 20:51 UTC.
Position N 39°45' E 024°39'.

Length 210 m; draft 10.7 m.

Type: Ship (hazmat cat A). MMSI: 271042493.

Date/timePositionNaut miles runAvg speedWind from/ knotsBaromVisibWave heightAir tempDewpointWater temp
2017-Apr-27 06:33N 39°45' E 024°39'314.4
2017-Apr-27 06:22N 39°46' E 024°35'514.6
2017-Apr-27 06:00N 39°46' E 024°29'1014.6
2017-Apr-27 05:18N 39°48' E 024°15'414.6
2017-Apr-27 05:00N 39°48' E 024°10'714.9
2017-Apr-27 04:30N 39°49' E 024°00'22 0.7
2017-Apr-25 22:32N 39°49' E 023°32'214.4
2017-Apr-25 22:22N 39°48' E 023°35'514.5
2017-Apr-25 22:00N 39°45' E 023°41'814.7
2017-Apr-25 21:27N 39°43' E 023°51'714.7
2017-Apr-25 20:59N 39°40' E 023°59'714.8
2017-Apr-25 20:30N 39°37' E 024°07'39811.7
2017-Apr-24 10:26N 37°50' E 015°56'818.4
2017-Apr-24 10:00N 37°52' E 015°46'917.5
2017-Apr-24 09:30N 37°56' E 015°37'918.1
2017-Apr-24 09:00N 38°05' E 015°34'816.9
2017-Apr-24 08:30N 38°13' E 015°36'714.2
2017-Apr-24 08:01N 38°19' E 015°40'917.5
2017-Apr-24 07:30N 38°26' E 015°32'917.9
2017-Apr-24 07:00N 38°32' E 015°24'1019.2
2017-Apr-24 06:30N 38°39' E 015°15'816.3
2017-Apr-24 06:00N 38°44' E 015°07'815.3
2017-Apr-24 05:30N 38°48' E 014°59'815.2
2017-Apr-24 05:00N 38°52' E 014°51'814.9
2017-Apr-24 04:28N 38°56' E 014°42'815.0
2017-Apr-24 03:57N 39°00' E 014°33'4015.2
2017-Apr-24 01:20N 39°20' E 013°49'514.4
2017-Apr-24 01:00N 39°23' E 013°44'914.5
2017-Apr-24 00:22N 39°28' E 013°33'44314.9
2017-Apr-22 18:37N 43°10' E 005°03'815.9
2017-Apr-22 18:07N 43°18' E 004°59'216.4
2017-Apr-22 18:00N 43°20' E 004°59'5 0.4
2017-Apr-22 04:20N 43°24' E 004°54'412.3
2017-Apr-22 04:00N 43°21' E 004°58'5 9.3
2017-Apr-22 03:27N 43°16' E 005°00'611.6
2017-Apr-22 02:56N 43°10' E 005°02'912.3
2017-Apr-22 02:10N 43°02' E 004°57'23 3.9
2017-Apr-21 20:11N 42°46' E 004°34'13512.6
2017-Apr-21 09:25N 41°18' E 002°16'6 6.7
2017-Apr-21 08:35N 41°21' E 002°10'0 0.3
2017-Apr-21 08:27N 41°21' E 002°10'0 0.0
2017-Apr-21 07:51N 41°21' E 002°10'0 0.0
2017-Apr-21 07:27N 41°21' E 002°10'0 0.0
2017-Apr-21 06:58N 41°21' E 002°10'0 0.1
2017-Apr-21 06:28N 41°21' E 002°10'0 0.0
2017-Apr-20 15:58N 41°21' E 002°10'3 3.6
2017-Apr-20 15:03N 41°18' E 002°13'0 1.4
2017-Apr-20 14:53N 41°18' E 002°12'17 1.7
2017-Apr-20 05:05N 41°05' E 001°59'313.9
2017-Apr-20 04:54N 41°03' E 001°57'614.1
2017-Apr-20 04:30N 40°59' E 001°52'714.4
2017-Apr-20 04:00N 40°53' E 001°46'714.3
2017-Apr-20 03:30N 40°47' E 001°41'714.4
2017-Apr-20 03:00N 40°41' E 001°35'714.2
2017-Apr-20 02:30N 40°37' E 001°28'714.1
2017-Apr-20 02:00N 40°33' E 001°21'814.4
2017-Apr-20 01:29N 40°28' E 001°12'814.6
2017-Apr-20 00:57N 40°24' E 001°04'54 2.0
2017-Apr-18 22:00N 39°58' E 000°02'0 0.0
2017-Apr-18 21:30N 39°58' E 000°02'0 0.0
2017-Apr-18 21:00N 39°58' E 000°02'0 0.0
2017-Apr-18 19:44N 39°58' E 000°02'1 1.8
2017-Apr-18 19:25N 39°57' E 000°02'3 5.9
2017-Apr-18 18:59N 39°57' E 000°05'31 2.2
2017-Apr-18 05:00N 39°29' W 000°12'611.4
2017-Apr-18 04:29N 39°26' W 000°18'2 3.1
2017-Apr-18 03:58N 39°27' W 000°19'0 0.0
2017-Apr-18 03:28N 39°27' W 000°19'0 0.0
2017-Apr-18 02:58N 39°27' W 000°19'0 0.0
2017-Apr-18 02:22N 39°27' W 000°19'0 0.0
2017-Apr-18 01:58N 39°27' W 000°19'0 0.0
2017-Apr-18 01:28N 39°27' W 000°19'0 0.0
2017-Apr-18 00:58N 39°27' W 000°19'0 0.0
2017-Apr-18 00:28N 39°27' W 000°19'0 0.0
2017-Apr-17 23:58N 39°27' W 000°19'0 0.0
2017-Apr-17 23:28N 39°27' W 000°19'0 0.0
2017-Apr-17 22:58N 39°27' W 000°19'0 0.0
2017-Apr-17 22:28N 39°27' W 000°19'0 0.0
2017-Apr-17 21:58N 39°27' W 000°19'0 0.0
2017-Apr-17 21:28N 39°27' W 000°19'0 0.0
2017-Apr-17 20:58N 39°27' W 000°19'0 0.0
2017-Apr-17 20:22N 39°27' W 000°19'0 0.0
2017-Apr-17 19:58N 39°27' W 000°19'0 0.0
2017-Apr-17 19:16N 39°27' W 000°19'0 0.0
2017-Apr-17 18:58N 39°27' W 000°19'0 0.0
2017-Apr-17 18:28N 39°27' W 000°19'0 0.0
2017-Apr-17 17:58N 39°27' W 000°19'0 0.0
2017-Apr-17 17:25N 39°27' W 000°19'0 0.0
2017-Apr-17 16:55N 39°27' W 000°19'0 0.0
2017-Apr-17 16:28N 39°27' W 000°19'0 0.0
2017-Apr-17 15:55N 39°27' W 000°19'0 0.0
2017-Apr-17 15:25N 39°27' W 000°19'0 0.0
2017-Apr-17 14:55N 39°27' W 000°19'0 0.0
2017-Apr-17 14:25N 39°27' W 000°19'0 0.0
2017-Apr-17 13:25N 39°27' W 000°19'0 0.0
2017-Apr-17 12:58N 39°27' W 000°19'0 0.0
2017-Apr-17 12:28N 39°27' W 000°19'0 0.0
2017-Apr-17 11:58N 39°27' W 000°19'0 0.0
2017-Apr-17 11:28N 39°27' W 000°19'1 2.1
2017-Apr-17 11:00N 39°26' W 000°19'0 0.7
2017-Apr-17 10:19N 39°26' W 000°19'0 0.0
2017-Apr-17 09:55N 39°26' W 000°19'0 0.0
2017-Apr-17 09:25N 39°26' W 000°19'0 0.0
2017-Apr-17 08:58N 39°26' W 000°19'0 0.1
2017-Apr-17 08:28N 39°26' W 000°19'0 0.0
2017-Apr-17 07:58N 39°26' W 000°19'0 0.0
2017-Apr-17 07:10N 39°26' W 000°19'0 0.0
2017-Apr-17 06:55N 39°26' W 000°19'  
Track history (hours):
 
Tides and Currents Weather Stations Pressure Air Temp Water Temp Dewpoint Dewpoint Depression Visibility Wind Speed Wind Dir Waves Ship Positions

Gulbeniz A

Last reported at 2017-Apr-27 06:33 UTC. Time now 2017-Apr-27 20:51 UTC.
Position N 39°45' E 024°39'.

Length 210 m; draft 10.7 m.

Type: Ship (hazmat cat A). MMSI: 271042493.

Date/timePositionNaut miles runAvg speedWind from/ knotsBaromVisibWave heightAir tempDewpointWater temp
2017-Apr-27 06:33N 39°45' E 024°39'314.4
2017-Apr-27 06:22N 39°46' E 024°35'514.6
2017-Apr-27 06:00N 39°46' E 024°29'1014.6
2017-Apr-27 05:18N 39°48' E 024°15'414.6
2017-Apr-27 05:00N 39°48' E 024°10'714.9
2017-Apr-27 04:30N 39°49' E 024°00'22 0.7
2017-Apr-25 22:32N 39°49' E 023°32'214.4
2017-Apr-25 22:22N 39°48' E 023°35'514.5
2017-Apr-25 22:00N 39°45' E 023°41'814.7
2017-Apr-25 21:27N 39°43' E 023°51'714.7
2017-Apr-25 20:59N 39°40' E 023°59'714.8
2017-Apr-25 20:30N 39°37' E 024°07'39811.7
2017-Apr-24 10:26N 37°50' E 015°56'818.4
2017-Apr-24 10:00N 37°52' E 015°46'917.5
2017-Apr-24 09:30N 37°56' E 015°37'918.1
2017-Apr-24 09:00N 38°05' E 015°34'816.9
2017-Apr-24 08:30N 38°13' E 015°36'714.2
2017-Apr-24 08:01N 38°19' E 015°40'917.5
2017-Apr-24 07:30N 38°26' E 015°32'917.9
2017-Apr-24 07:00N 38°32' E 015°24'1019.2
2017-Apr-24 06:30N 38°39' E 015°15'816.3
2017-Apr-24 06:00N 38°44' E 015°07'815.3
2017-Apr-24 05:30N 38°48' E 014°59'815.2
2017-Apr-24 05:00N 38°52' E 014°51'814.9
2017-Apr-24 04:28N 38°56' E 014°42'815.0
2017-Apr-24 03:57N 39°00' E 014°33'4015.2
2017-Apr-24 01:20N 39°20' E 013°49'514.4
2017-Apr-24 01:00N 39°23' E 013°44'914.5
2017-Apr-24 00:22N 39°28' E 013°33'44314.9
2017-Apr-22 18:37N 43°10' E 005°03'815.9
2017-Apr-22 18:07N 43°18' E 004°59'216.4
2017-Apr-22 18:00N 43°20' E 004°59'5 0.4
2017-Apr-22 04:20N 43°24' E 004°54'412.3
2017-Apr-22 04:00N 43°21' E 004°58'5 9.3
2017-Apr-22 03:27N 43°16' E 005°00'611.6
2017-Apr-22 02:56N 43°10' E 005°02'912.3
2017-Apr-22 02:10N 43°02' E 004°57'23 3.9
2017-Apr-21 20:11N 42°46' E 004°34'13512.6
2017-Apr-21 09:25N 41°18' E 002°16'6 6.7
2017-Apr-21 08:35N 41°21' E 002°10'0 0.3
2017-Apr-21 08:27N 41°21' E 002°10'0 0.0
2017-Apr-21 07:51N 41°21' E 002°10'0 0.0
2017-Apr-21 07:27N 41°21' E 002°10'0 0.0
2017-Apr-21 06:58N 41°21' E 002°10'0 0.1
2017-Apr-21 06:28N 41°21' E 002°10'0 0.0
2017-Apr-20 15:58N 41°21' E 002°10'3 3.6
2017-Apr-20 15:03N 41°18' E 002°13'0 1.4
2017-Apr-20 14:53N 41°18' E 002°12'17 1.7
2017-Apr-20 05:05N 41°05' E 001°59'313.9
2017-Apr-20 04:54N 41°03' E 001°57'614.1
2017-Apr-20 04:30N 40°59' E 001°52'714.4
2017-Apr-20 04:00N 40°53' E 001°46'714.3
2017-Apr-20 03:30N 40°47' E 001°41'714.4
2017-Apr-20 03:00N 40°41' E 001°35'714.2
2017-Apr-20 02:30N 40°37' E 001°28'714.1
2017-Apr-20 02:00N 40°33' E 001°21'814.4
2017-Apr-20 01:29N 40°28' E 001°12'814.6
2017-Apr-20 00:57N 40°24' E 001°04'54 2.0
2017-Apr-18 22:00N 39°58' E 000°02'0 0.0
2017-Apr-18 21:30N 39°58' E 000°02'0 0.0
2017-Apr-18 21:00N 39°58' E 000°02'0 0.0
2017-Apr-18 19:44N 39°58' E 000°02'1 1.8
2017-Apr-18 19:25N 39°57' E 000°02'3 5.9
2017-Apr-18 18:59N 39°57' E 000°05'31 2.2
2017-Apr-18 05:00N 39°29' W 000°12'611.4
2017-Apr-18 04:29N 39°26' W 000°18'2 3.1
2017-Apr-18 03:58N 39°27' W 000°19'0 0.0
2017-Apr-18 03:28N 39°27' W 000°19'0 0.0
2017-Apr-18 02:58N 39°27' W 000°19'0 0.0
2017-Apr-18 02:22N 39°27' W 000°19'0 0.0
2017-Apr-18 01:58N 39°27' W 000°19'0 0.0
2017-Apr-18 01:28N 39°27' W 000°19'0 0.0
2017-Apr-18 00:58N 39°27' W 000°19'0 0.0
2017-Apr-18 00:28N 39°27' W 000°19'0 0.0
2017-Apr-17 23:58N 39°27' W 000°19'0 0.0
2017-Apr-17 23:28N 39°27' W 000°19'0 0.0
2017-Apr-17 22:58N 39°27' W 000°19'0 0.0
2017-Apr-17 22:28N 39°27' W 000°19'0 0.0
2017-Apr-17 21:58N 39°27' W 000°19'0 0.0
2017-Apr-17 21:28N 39°27' W 000°19'0 0.0
2017-Apr-17 20:58N 39°27' W 000°19'0 0.0
2017-Apr-17 20:22N 39°27' W 000°19'0 0.0
2017-Apr-17 19:58N 39°27' W 000°19'0 0.0
2017-Apr-17 19:16N 39°27' W 000°19'0 0.0
2017-Apr-17 18:58N 39°27' W 000°19'0 0.0
2017-Apr-17 18:28N 39°27' W 000°19'0 0.0
2017-Apr-17 17:58N 39°27' W 000°19'0 0.0
2017-Apr-17 17:25N 39°27' W 000°19'0 0.0
2017-Apr-17 16:55N 39°27' W 000°19'0 0.0
2017-Apr-17 16:28N 39°27' W 000°19'0 0.0
2017-Apr-17 15:55N 39°27' W 000°19'0 0.0
2017-Apr-17 15:25N 39°27' W 000°19'0 0.0
2017-Apr-17 14:55N 39°27' W 000°19'0 0.0
2017-Apr-17 14:25N 39°27' W 000°19'0 0.0
2017-Apr-17 13:25N 39°27' W 000°19'0 0.0
2017-Apr-17 12:58N 39°27' W 000°19'0 0.0
2017-Apr-17 12:28N 39°27' W 000°19'0 0.0
2017-Apr-17 11:58N 39°27' W 000°19'0 0.0
2017-Apr-17 11:28N 39°27' W 000°19'1 2.1
2017-Apr-17 11:00N 39°26' W 000°19'0 0.7
2017-Apr-17 10:19N 39°26' W 000°19'0 0.0
2017-Apr-17 09:55N 39°26' W 000°19'0 0.0
2017-Apr-17 09:25N 39°26' W 000°19'0 0.0
2017-Apr-17 08:58N 39°26' W 000°19'0 0.1
2017-Apr-17 08:28N 39°26' W 000°19'0 0.0
2017-Apr-17 07:58N 39°26' W 000°19'0 0.0
2017-Apr-17 07:10N 39°26' W 000°19'0 0.0
2017-Apr-17 06:55N 39°26' W 000°19'  

Dump ship's entire track history